sensor_id;sensor_type;location;lat;lon;timestamp;P1;durP1;ratioP1;P2;durP2;ratioP2
61899;SDS011;47853;55.890;37.664;2022-09-17T00:00:12;20.77;;;15.02;;
61899;SDS011;47853;55.890;37.664;2022-09-17T00:02:38;22.17;;;17.75;;
61899;SDS011;47853;55.890;37.664;2022-09-17T00:05:03;15.63;;;13.95;;
61899;SDS011;47853;55.890;37.664;2022-09-17T00:07:31;15.73;;;14.10;;
61899;SDS011;47853;55.890;37.664;2022-09-17T00:09:56;16.92;;;13.25;;
61899;SDS011;47853;55.890;37.664;2022-09-17T00:12:27;15.32;;;13.77;;
61899;SDS011;47853;55.890;37.664;2022-09-17T00:14:52;20.75;;;15.90;;
61899;SDS011;47853;55.890;37.664;2022-09-17T00:17:18;17.00;;;13.80;;
61899;SDS011;47853;55.890;37.664;2022-09-17T00:19:43;14.55;;;11.35;;
61899;SDS011;47853;55.890;37.664;2022-09-17T00:22:08;14.52;;;12.60;;
61899;SDS011;47853;55.890;37.664;2022-09-17T00:24:34;16.40;;;13.63;;
61899;SDS011;47853;55.890;37.664;2022-09-17T00:26:59;14.73;;;12.32;;
61899;SDS011;47853;55.890;37.664;2022-09-17T00:29:24;14.68;;;12.90;;
61899;SDS011;47853;55.890;37.664;2022-09-17T00:31:50;27.98;;;13.35;;
61899;SDS011;47853;55.890;37.664;2022-09-17T00:34:15;16.67;;;13.13;;
61899;SDS011;47853;55.890;37.664;2022-09-17T00:36:41;18.13;;;14.73;;
61899;SDS011;47853;55.890;37.664;2022-09-17T00:39:07;22.38;;;17.85;;
61899;SDS011;47853;55.890;37.664;2022-09-17T00:41:34;21.55;;;16.38;;
61899;SDS011;47853;55.890;37.664;2022-09-17T00:44:37;22.98;;;19.52;;
61899;SDS011;47853;55.890;37.664;2022-09-17T00:47:01;25.88;;;22.08;;
61899;SDS011;47853;55.890;37.664;2022-09-17T00:49:28;41.78;;;24.90;;
61899;SDS011;47853;55.890;37.664;2022-09-17T00:52:03;28.95;;;21.83;;
61899;SDS011;47853;55.890;37.664;2022-09-17T00:54:38;21.63;;;17.88;;
61899;SDS011;47853;55.890;37.664;2022-09-17T00:57:07;21.10;;;16.90;;
61899;SDS011;47853;55.890;37.664;2022-09-17T00:59:35;19.65;;;17.17;;
61899;SDS011;47853;55.890;37.664;2022-09-17T01:02:01;21.02;;;16.10;;
61899;SDS011;47853;55.890;37.664;2022-09-17T01:04:28;16.73;;;14.52;;
61899;SDS011;47853;55.890;37.664;2022-09-17T01:34:30;12.60;;;9.60;;
61899;SDS011;47853;55.890;37.664;2022-09-17T01:45:41;16.20;;;8.30;;
61899;SDS011;47853;55.890;37.664;2022-09-17T01:48:16;10.27;;;8.00;;
61899;SDS011;47853;55.890;37.664;2022-09-17T01:51:03;10.10;;;7.40;;
61899;SDS011;47853;55.890;37.664;2022-09-17T01:56:24;10.98;;;7.70;;
61899;SDS011;47853;55.890;37.664;2022-09-17T02:01:38;9.48;;;7.82;;
61899;SDS011;47853;55.890;37.664;2022-09-17T02:04:12;7.88;;;7.15;;
61899;SDS011;47853;55.890;37.664;2022-09-17T02:06:44;11.38;;;6.97;;
61899;SDS011;47853;55.890;37.664;2022-09-17T02:09:16;10.02;;;7.55;;
61899;SDS011;47853;55.890;37.664;2022-09-17T02:11:47;7.55;;;6.82;;
61899;SDS011;47853;55.890;37.664;2022-09-17T02:14:19;9.85;;;7.40;;
61899;SDS011;47853;55.890;37.664;2022-09-17T02:16:54;8.55;;;7.32;;
61899;SDS011;47853;55.890;37.664;2022-09-17T02:19:29;12.23;;;7.28;;
61899;SDS011;47853;55.890;37.664;2022-09-17T02:27:12;10.10;;;6.05;;
61899;SDS011;47853;55.890;37.664;2022-09-17T02:30:01;8.03;;;5.90;;
61899;SDS011;47853;55.890;37.664;2022-09-17T02:32:27;5.93;;;5.32;;
61899;SDS011;47853;55.890;37.664;2022-09-17T02:34:53;7.93;;;5.88;;
61899;SDS011;47853;55.890;37.664;2022-09-17T02:37:18;6.35;;;5.43;;
61899;SDS011;47853;55.890;37.664;2022-09-17T02:39:43;6.90;;;4.95;;
61899;SDS011;47853;55.890;37.664;2022-09-17T02:48:15;10.25;;;4.78;;
61899;SDS011;47853;55.890;37.664;2022-09-17T02:53:59;6.20;;;4.60;;
61899;SDS011;47853;55.890;37.664;2022-09-17T02:59:32;11.82;;;5.25;;
61899;SDS011;47853;55.890;37.664;2022-09-17T03:02:27;8.00;;;5.40;;
61899;SDS011;47853;55.890;37.664;2022-09-17T03:04:58;7.80;;;4.88;;
61899;SDS011;47853;55.890;37.664;2022-09-17T03:07:25;8.38;;;5.53;;
61899;SDS011;47853;55.890;37.664;2022-09-17T03:09:51;9.43;;;4.88;;
61899;SDS011;47853;55.890;37.664;2022-09-17T03:12:16;6.60;;;5.00;;
61899;SDS011;47853;55.890;37.664;2022-09-17T03:14:42;6.63;;;5.10;;
61899;SDS011;47853;55.890;37.664;2022-09-17T03:17:08;6.50;;;5.60;;
61899;SDS011;47853;55.890;37.664;2022-09-17T03:19:35;5.50;;;4.50;;
61899;SDS011;47853;55.890;37.664;2022-09-17T03:22:00;5.85;;;5.30;;
61899;SDS011;47853;55.890;37.664;2022-09-17T03:24:26;7.38;;;5.20;;
61899;SDS011;47853;55.890;37.664;2022-09-17T03:26:51;6.50;;;5.28;;
61899;SDS011;47853;55.890;37.664;2022-09-17T03:29:16;7.53;;;6.68;;
61899;SDS011;47853;55.890;37.664;2022-09-17T03:31:42;6.07;;;5.13;;
61899;SDS011;47853;55.890;37.664;2022-09-17T03:34:07;6.93;;;5.30;;
61899;SDS011;47853;55.890;37.664;2022-09-17T03:36:32;7.13;;;5.25;;
61899;SDS011;47853;55.890;37.664;2022-09-17T03:38:58;9.38;;;5.28;;
61899;SDS011;47853;55.890;37.664;2022-09-17T03:41:24;5.53;;;4.90;;
61899;SDS011;47853;55.890;37.664;2022-09-17T03:43:49;6.60;;;5.20;;
61899;SDS011;47853;55.890;37.664;2022-09-17T03:46:15;8.43;;;5.35;;
61899;SDS011;47853;55.890;37.664;2022-09-17T03:48:41;6.57;;;4.50;;
61899;SDS011;47853;55.890;37.664;2022-09-17T03:51:06;12.68;;;5.65;;
61899;SDS011;47853;55.890;37.664;2022-09-17T03:53:32;6.10;;;4.63;;
61899;SDS011;47853;55.890;37.664;2022-09-17T03:56:00;5.72;;;4.55;;
61899;SDS011;47853;55.890;37.664;2022-09-17T03:58:28;6.72;;;4.85;;
61899;SDS011;47853;55.890;37.664;2022-09-17T04:00:54;5.05;;;4.35;;
61899;SDS011;47853;55.890;37.664;2022-09-17T04:03:19;5.70;;;4.55;;
61899;SDS011;47853;55.890;37.664;2022-09-17T04:05:45;5.50;;;3.83;;
61899;SDS011;47853;55.890;37.664;2022-09-17T04:08:10;8.40;;;4.75;;
61899;SDS011;47853;55.890;37.664;2022-09-17T04:10:35;8.15;;;4.35;;
61899;SDS011;47853;55.890;37.664;2022-09-17T04:13:01;6.75;;;3.53;;
61899;SDS011;47853;55.890;37.664;2022-09-17T04:15:26;5.03;;;3.83;;
61899;SDS011;47853;55.890;37.664;2022-09-17T04:17:54;4.25;;;3.85;;
61899;SDS011;47853;55.890;37.664;2022-09-17T04:20:20;7.78;;;3.58;;
61899;SDS011;47853;55.890;37.664;2022-09-17T04:22:45;4.57;;;3.55;;
61899;SDS011;47853;55.890;37.664;2022-09-17T04:25:11;7.13;;;3.53;;
61899;SDS011;47853;55.890;37.664;2022-09-17T04:27:36;6.93;;;3.60;;
61899;SDS011;47853;55.890;37.664;2022-09-17T04:30:01;7.82;;;3.65;;
61899;SDS011;47853;55.890;37.664;2022-09-17T04:32:27;5.15;;;3.58;;
61899;SDS011;47853;55.890;37.664;2022-09-17T04:34:52;9.13;;;3.20;;
61899;SDS011;47853;55.890;37.664;2022-09-17T04:37:17;3.92;;;3.08;;
61899;SDS011;47853;55.890;37.664;2022-09-17T04:39:43;4.80;;;3.42;;
61899;SDS011;47853;55.890;37.664;2022-09-17T04:42:08;5.05;;;3.55;;
61899;SDS011;47853;55.890;37.664;2022-09-17T04:44:33;6.22;;;3.25;;
61899;SDS011;47853;55.890;37.664;2022-09-17T04:46:59;6.70;;;3.38;;
61899;SDS011;47853;55.890;37.664;2022-09-17T04:49:24;6.43;;;2.80;;
61899;SDS011;47853;55.890;37.664;2022-09-17T04:51:50;3.50;;;2.88;;
61899;SDS011;47853;55.890;37.664;2022-09-17T04:54:15;5.18;;;3.08;;
61899;SDS011;47853;55.890;37.664;2022-09-17T04:56:40;3.03;;;2.75;;
61899;SDS011;47853;55.890;37.664;2022-09-17T04:59:05;5.07;;;3.15;;
61899;SDS011;47853;55.890;37.664;2022-09-17T05:01:31;4.70;;;3.10;;
61899;SDS011;47853;55.890;37.664;2022-09-17T05:03:56;4.38;;;3.22;;
61899;SDS011;47853;55.890;37.664;2022-09-17T05:06:22;3.05;;;2.53;;
61899;SDS011;47853;55.890;37.664;2022-09-17T05:08:47;5.43;;;2.85;;
61899;SDS011;47853;55.890;37.664;2022-09-17T05:11:12;2.60;;;2.40;;
61899;SDS011;47853;55.890;37.664;2022-09-17T05:13:38;5.00;;;3.33;;
61899;SDS011;47853;55.890;37.664;2022-09-17T05:16:03;5.05;;;2.50;;
61899;SDS011;47853;55.890;37.664;2022-09-17T05:18:28;4.03;;;2.60;;
61899;SDS011;47853;55.890;37.664;2022-09-17T05:20:54;8.98;;;3.10;;
61899;SDS011;47853;55.890;37.664;2022-09-17T05:23:19;6.43;;;2.85;;
61899;SDS011;47853;55.890;37.664;2022-09-17T05:25:44;3.03;;;2.15;;
61899;SDS011;47853;55.890;37.664;2022-09-17T05:28:10;5.50;;;2.40;;
61899;SDS011;47853;55.890;37.664;2022-09-17T05:30:35;5.47;;;2.40;;
61899;SDS011;47853;55.890;37.664;2022-09-17T05:33:01;5.07;;;2.40;;
61899;SDS011;47853;55.890;37.664;2022-09-17T05:35:28;3.63;;;2.22;;
61899;SDS011;47853;55.890;37.664;2022-09-17T05:37:58;4.72;;;2.33;;
61899;SDS011;47853;55.890;37.664;2022-09-17T05:40:24;2.88;;;2.25;;
61899;SDS011;47853;55.890;37.664;2022-09-17T05:42:50;4.70;;;2.08;;
61899;SDS011;47853;55.890;37.664;2022-09-17T05:45:16;5.10;;;2.03;;
61899;SDS011;47853;55.890;37.664;2022-09-17T05:47:41;5.45;;;2.35;;
61899;SDS011;47853;55.890;37.664;2022-09-17T05:50:06;3.72;;;2.10;;
61899;SDS011;47853;55.890;37.664;2022-09-17T05:52:41;3.85;;;1.90;;
61899;SDS011;47853;55.890;37.664;2022-09-17T05:55:07;4.90;;;1.88;;
61899;SDS011;47853;55.890;37.664;2022-09-17T05:57:32;3.92;;;1.80;;
61899;SDS011;47853;55.890;37.664;2022-09-17T05:59:57;6.05;;;2.35;;
61899;SDS011;47853;55.890;37.664;2022-09-17T06:02:23;4.28;;;1.67;;
61899;SDS011;47853;55.890;37.664;2022-09-17T06:04:48;4.93;;;2.00;;
61899;SDS011;47853;55.890;37.664;2022-09-17T06:07:14;4.93;;;2.05;;
61899;SDS011;47853;55.890;37.664;2022-09-17T06:09:42;5.22;;;2.10;;
61899;SDS011;47853;55.890;37.664;2022-09-17T06:12:07;6.85;;;2.22;;
61899;SDS011;47853;55.890;37.664;2022-09-17T06:14:32;3.28;;;2.15;;
61899;SDS011;47853;55.890;37.664;2022-09-17T06:17:06;5.75;;;2.45;;
61899;SDS011;47853;55.890;37.664;2022-09-17T06:19:32;4.07;;;2.08;;
61899;SDS011;47853;55.890;37.664;2022-09-17T06:21:57;5.82;;;2.17;;
61899;SDS011;47853;55.890;37.664;2022-09-17T06:24:25;5.00;;;2.55;;
61899;SDS011;47853;55.890;37.664;2022-09-17T06:26:50;5.50;;;2.63;;
61899;SDS011;47853;55.890;37.664;2022-09-17T06:29:16;6.97;;;2.78;;
61899;SDS011;47853;55.890;37.664;2022-09-17T06:31:41;6.05;;;3.08;;
61899;SDS011;47853;55.890;37.664;2022-09-17T06:34:07;6.50;;;2.45;;
61899;SDS011;47853;55.890;37.664;2022-09-17T06:36:32;7.28;;;2.30;;
61899;SDS011;47853;55.890;37.664;2022-09-17T06:38:57;4.95;;;2.33;;
61899;SDS011;47853;55.890;37.664;2022-09-17T06:41:23;5.38;;;2.58;;
61899;SDS011;47853;55.890;37.664;2022-09-17T06:43:51;9.55;;;3.17;;
61899;SDS011;47853;55.890;37.664;2022-09-17T06:46:27;5.63;;;2.38;;
61899;SDS011;47853;55.890;37.664;2022-09-17T06:49:01;9.43;;;2.65;;
61899;SDS011;47853;55.890;37.664;2022-09-17T06:51:27;10.55;;;3.13;;
61899;SDS011;47853;55.890;37.664;2022-09-17T06:53:55;8.43;;;3.20;;
61899;SDS011;47853;55.890;37.664;2022-09-17T06:56:21;6.68;;;2.80;;
61899;SDS011;47853;55.890;37.664;2022-09-17T06:58:46;7.65;;;2.60;;
61899;SDS011;47853;55.890;37.664;2022-09-17T07:01:12;9.20;;;2.28;;
61899;SDS011;47853;55.890;37.664;2022-09-17T07:03:38;10.13;;;2.65;;
61899;SDS011;47853;55.890;37.664;2022-09-17T07:06:11;7.30;;;2.88;;
61899;SDS011;47853;55.890;37.664;2022-09-17T07:08:39;7.53;;;2.70;;
61899;SDS011;47853;55.890;37.664;2022-09-17T07:11:04;7.10;;;2.50;;
61899;SDS011;47853;55.890;37.664;2022-09-17T07:13:30;7.00;;;2.42;;
61899;SDS011;47853;55.890;37.664;2022-09-17T07:15:59;6.28;;;2.85;;
61899;SDS011;47853;55.890;37.664;2022-09-17T07:18:26;6.35;;;2.42;;
61899;SDS011;47853;55.890;37.664;2022-09-17T07:20:54;7.28;;;2.38;;
61899;SDS011;47853;55.890;37.664;2022-09-17T07:23:23;5.60;;;2.30;;
61899;SDS011;47853;55.890;37.664;2022-09-17T07:25:50;4.20;;;2.30;;
61899;SDS011;47853;55.890;37.664;2022-09-17T07:28:16;7.28;;;2.30;;
61899;SDS011;47853;55.890;37.664;2022-09-17T07:30:42;6.68;;;2.33;;
61899;SDS011;47853;55.890;37.664;2022-09-17T07:33:07;6.57;;;1.63;;
61899;SDS011;47853;55.890;37.664;2022-09-17T07:35:33;2.67;;;1.80;;
61899;SDS011;47853;55.890;37.664;2022-09-17T07:37:58;7.72;;;1.80;;
61899;SDS011;47853;55.890;37.664;2022-09-17T07:40:23;3.03;;;1.52;;
61899;SDS011;47853;55.890;37.664;2022-09-17T07:42:49;4.15;;;1.80;;
61899;SDS011;47853;55.890;37.664;2022-09-17T07:45:14;4.47;;;1.67;;
61899;SDS011;47853;55.890;37.664;2022-09-17T07:47:39;3.38;;;1.60;;
61899;SDS011;47853;55.890;37.664;2022-09-17T07:50:08;5.22;;;1.67;;
61899;SDS011;47853;55.890;37.664;2022-09-17T07:52:33;4.30;;;1.75;;
61899;SDS011;47853;55.890;37.664;2022-09-17T07:54:58;5.57;;;1.90;;
61899;SDS011;47853;55.890;37.664;2022-09-17T07:57:24;4.00;;;1.70;;
61899;SDS011;47853;55.890;37.664;2022-09-17T07:59:50;11.35;;;1.90;;
61899;SDS011;47853;55.890;37.664;2022-09-17T08:02:16;7.10;;;1.85;;
61899;SDS011;47853;55.890;37.664;2022-09-17T08:04:41;5.70;;;2.03;;
61899;SDS011;47853;55.890;37.664;2022-09-17T08:07:06;3.50;;;1.55;;
61899;SDS011;47853;55.890;37.664;2022-09-17T08:09:35;5.28;;;1.48;;
61899;SDS011;47853;55.890;37.664;2022-09-17T08:12:00;4.95;;;1.67;;
61899;SDS011;47853;55.890;37.664;2022-09-17T08:14:29;3.85;;;1.77;;
61899;SDS011;47853;55.890;37.664;2022-09-17T08:16:54;8.35;;;1.77;;
61899;SDS011;47853;55.890;37.664;2022-09-17T08:19:20;11.73;;;1.98;;
61899;SDS011;47853;55.890;37.664;2022-09-17T08:21:45;4.82;;;2.20;;
61899;SDS011;47853;55.890;37.664;2022-09-17T08:24:11;4.80;;;1.77;;
61899;SDS011;47853;55.890;37.664;2022-09-17T08:26:36;7.28;;;1.60;;
61899;SDS011;47853;55.890;37.664;2022-09-17T08:29:01;7.60;;;1.65;;
61899;SDS011;47853;55.890;37.664;2022-09-17T08:31:27;18.58;;;12.00;;
61899;SDS011;47853;55.890;37.664;2022-09-17T08:33:52;8.48;;;2.30;;
61899;SDS011;47853;55.890;37.664;2022-09-17T08:36:18;4.65;;;1.70;;
61899;SDS011;47853;55.890;37.664;2022-09-17T08:38:44;6.07;;;1.70;;
61899;SDS011;47853;55.890;37.664;2022-09-17T08:46:25;9.05;;;1.60;;
61899;SDS011;47853;55.890;37.664;2022-09-17T08:49:01;4.90;;;1.42;;
61899;SDS011;47853;55.890;37.664;2022-09-17T08:54:39;2.88;;;1.40;;
61899;SDS011;47853;55.890;37.664;2022-09-17T09:00:15;2.80;;;1.40;;
61899;SDS011;47853;55.890;37.664;2022-09-17T09:05:35;7.22;;;1.63;;
61899;SDS011;47853;55.890;37.664;2022-09-17T09:08:31;4.20;;;1.58;;
61899;SDS011;47853;55.890;37.664;2022-09-17T09:11:15;3.78;;;1.58;;
61899;SDS011;47853;55.890;37.664;2022-09-17T09:14:05;8.90;;;1.40;;
61899;SDS011;47853;55.890;37.664;2022-09-17T09:16:40;7.85;;;1.80;;
61899;SDS011;47853;55.890;37.664;2022-09-17T09:19:13;6.90;;;2.30;;
61899;SDS011;47853;55.890;37.664;2022-09-17T09:21:53;5.80;;;1.75;;
61899;SDS011;47853;55.890;37.664;2022-09-17T09:24:44;3.92;;;1.45;;
61899;SDS011;47853;55.890;37.664;2022-09-17T09:30:04;4.85;;;1.75;;
61899;SDS011;47853;55.890;37.664;2022-09-17T09:35:15;9.90;;;1.33;;
61899;SDS011;47853;55.890;37.664;2022-09-17T09:37:51;3.97;;;1.10;;
61899;SDS011;47853;55.890;37.664;2022-09-17T09:42:59;5.63;;;1.20;;
61899;SDS011;47853;55.890;37.664;2022-09-17T09:48:27;4.07;;;1.10;;
61899;SDS011;47853;55.890;37.664;2022-09-17T09:57:16;2.38;;;0.95;;
61899;SDS011;47853;55.890;37.664;2022-09-17T09:59:46;4.95;;;1.15;;
61899;SDS011;47853;55.890;37.664;2022-09-17T10:02:11;6.68;;;1.30;;
61899;SDS011;47853;55.890;37.664;2022-09-17T10:04:37;3.33;;;1.20;;
61899;SDS011;47853;55.890;37.664;2022-09-17T10:07:04;3.05;;;0.95;;
61899;SDS011;47853;55.890;37.664;2022-09-17T10:09:31;3.85;;;1.10;;
61899;SDS011;47853;55.890;37.664;2022-09-17T10:12:16;3.17;;;1.00;;
61899;SDS011;47853;55.890;37.664;2022-09-17T10:22:44;5.05;;;1.00;;
61899;SDS011;47853;55.890;37.664;2022-09-17T10:27:56;6.20;;;1.27;;
61899;SDS011;47853;55.890;37.664;2022-09-17T10:30:23;2.78;;;1.02;;
61899;SDS011;47853;55.890;37.664;2022-09-17T10:33:09;2.83;;;0.90;;
61899;SDS011;47853;55.890;37.664;2022-09-17T10:35:39;5.15;;;1.08;;
61899;SDS011;47853;55.890;37.664;2022-09-17T10:38:24;4.57;;;1.20;;
61899;SDS011;47853;55.890;37.664;2022-09-17T10:41:07;2.40;;;1.38;;
61899;SDS011;47853;55.890;37.664;2022-09-17T10:43:38;8.20;;;1.38;;
61899;SDS011;47853;55.890;37.664;2022-09-17T10:46:08;7.25;;;0.88;;
61899;SDS011;47853;55.890;37.664;2022-09-17T10:48:49;3.22;;;0.90;;
61899;SDS011;47853;55.890;37.664;2022-09-17T10:51:33;4.97;;;1.10;;
61899;SDS011;47853;55.890;37.664;2022-09-17T10:54:01;4.93;;;0.90;;
61899;SDS011;47853;55.890;37.664;2022-09-17T10:56:48;2.15;;;1.17;;
61899;SDS011;47853;55.890;37.664;2022-09-17T11:12:25;2.47;;;0.85;;
61899;SDS011;47853;55.890;37.664;2022-09-17T11:15:02;5.40;;;1.20;;
61899;SDS011;47853;55.890;37.664;2022-09-17T11:35:14;2.53;;;1.02;;
61899;SDS011;47853;55.890;37.664;2022-09-17T11:37:51;4.72;;;1.20;;
61899;SDS011;47853;55.890;37.664;2022-09-17T11:46:16;3.05;;;1.00;;
61899;SDS011;47853;55.890;37.664;2022-09-17T11:51:27;3.45;;;1.08;;
61899;SDS011;47853;55.890;37.664;2022-09-17T11:57:19;3.20;;;1.00;;
61899;SDS011;47853;55.890;37.664;2022-09-17T11:59:53;4.38;;;1.17;;
61899;SDS011;47853;55.890;37.664;2022-09-17T12:05:33;3.45;;;0.80;;
61899;SDS011;47853;55.890;37.664;2022-09-17T12:08:10;3.05;;;1.00;;
61899;SDS011;47853;55.890;37.664;2022-09-17T12:10:44;3.40;;;1.10;;
61899;SDS011;47853;55.890;37.664;2022-09-17T12:13:17;2.70;;;1.30;;
61899;SDS011;47853;55.890;37.664;2022-09-17T12:16:06;4.13;;;1.08;;
61899;SDS011;47853;55.890;37.664;2022-09-17T12:21:08;6.03;;;1.30;;
61899;SDS011;47853;55.890;37.664;2022-09-17T12:23:40;6.13;;;1.38;;
61899;SDS011;47853;55.890;37.664;2022-09-17T12:28:56;4.27;;;1.20;;
61899;SDS011;47853;55.890;37.664;2022-09-17T12:31:45;5.32;;;1.17;;
61899;SDS011;47853;55.890;37.664;2022-09-17T12:37:21;3.35;;;0.85;;
61899;SDS011;47853;55.890;37.664;2022-09-17T12:39:57;4.60;;;1.17;;
61899;SDS011;47853;55.890;37.664;2022-09-17T12:43:05;5.13;;;1.20;;
61899;SDS011;47853;55.890;37.664;2022-09-17T12:53:41;3.05;;;0.90;;
61899;SDS011;47853;55.890;37.664;2022-09-17T12:59:15;2.00;;;0.97;;
61899;SDS011;47853;55.890;37.664;2022-09-17T13:18:12;4.35;;;1.30;;
61899;SDS011;47853;55.890;37.664;2022-09-17T13:23:09;4.22;;;1.10;;
61899;SDS011;47853;55.890;37.664;2022-09-17T13:25:47;1.52;;;1.00;;
61899;SDS011;47853;55.890;37.664;2022-09-17T13:31:08;2.97;;;1.17;;
61899;SDS011;47853;55.890;37.664;2022-09-17T13:42:10;5.10;;;1.60;;
61899;SDS011;47853;55.890;37.664;2022-09-17T13:44:42;4.50;;;1.35;;
61899;SDS011;47853;55.890;37.664;2022-09-17T13:49:50;6.25;;;1.80;;
61899;SDS011;47853;55.890;37.664;2022-09-17T13:54:59;5.53;;;1.70;;
61899;SDS011;47853;55.890;37.664;2022-09-17T13:57:26;6.50;;;2.42;;
61899;SDS011;47853;55.890;37.664;2022-09-17T13:59:55;3.92;;;2.20;;
61899;SDS011;47853;55.890;37.664;2022-09-17T14:02:34;2.55;;;1.60;;
61899;SDS011;47853;55.890;37.664;2022-09-17T14:05:20;5.43;;;1.60;;
61899;SDS011;47853;55.890;37.664;2022-09-17T14:07:49;4.43;;;1.75;;
61899;SDS011;47853;55.890;37.664;2022-09-17T14:17:53;8.57;;;1.70;;
61899;SDS011;47853;55.890;37.664;2022-09-17T14:20:19;2.17;;;1.58;;
61899;SDS011;47853;55.890;37.664;2022-09-17T14:22:56;4.43;;;1.83;;
61899;SDS011;47853;55.890;37.664;2022-09-17T14:25:36;5.97;;;2.05;;
61899;SDS011;47853;55.890;37.664;2022-09-17T14:28:28;4.00;;;2.22;;
61899;SDS011;47853;55.890;37.664;2022-09-17T14:31:05;4.82;;;1.45;;
61899;SDS011;47853;55.890;37.664;2022-09-17T14:33:36;2.63;;;1.30;;
61899;SDS011;47853;55.890;37.664;2022-09-17T14:36:07;8.43;;;1.80;;
61899;SDS011;47853;55.890;37.664;2022-09-17T14:39:09;4.57;;;1.42;;
61899;SDS011;47853;55.890;37.664;2022-09-17T14:41:31;5.13;;;1.30;;
61899;SDS011;47853;55.890;37.664;2022-09-17T14:49:21;4.57;;;0.90;;
61899;SDS011;47853;55.890;37.664;2022-09-17T14:51:48;5.18;;;1.38;;
61899;SDS011;47853;55.890;37.664;2022-09-17T14:54:15;4.00;;;0.90;;
61899;SDS011;47853;55.890;37.664;2022-09-17T14:56:44;5.03;;;1.10;;
61899;SDS011;47853;55.890;37.664;2022-09-17T15:02:18;3.67;;;1.15;;
61899;SDS011;47853;55.890;37.664;2022-09-17T15:05:14;2.88;;;1.50;;
61899;SDS011;47853;55.890;37.664;2022-09-17T15:07:40;2.80;;;1.40;;
61899;SDS011;47853;55.890;37.664;2022-09-17T15:10:07;3.65;;;1.20;;
61899;SDS011;47853;55.890;37.664;2022-09-17T15:12:36;4.20;;;1.90;;
61899;SDS011;47853;55.890;37.664;2022-09-17T15:15:15;6.57;;;1.50;;
61899;SDS011;47853;55.890;37.664;2022-09-17T15:17:47;3.78;;;1.75;;
61899;SDS011;47853;55.890;37.664;2022-09-17T15:20:16;5.38;;;1.55;;
61899;SDS011;47853;55.890;37.664;2022-09-17T15:26:02;4.82;;;1.80;;
61899;SDS011;47853;55.890;37.664;2022-09-17T15:28:43;3.97;;;1.65;;
61899;SDS011;47853;55.890;37.664;2022-09-17T15:31:30;2.85;;;1.75;;
61899;SDS011;47853;55.890;37.664;2022-09-17T15:33:59;4.20;;;1.77;;
61899;SDS011;47853;55.890;37.664;2022-09-17T15:36:25;5.53;;;1.90;;
61899;SDS011;47853;55.890;37.664;2022-09-17T15:38:51;9.35;;;2.13;;
61899;SDS011;47853;55.890;37.664;2022-09-17T15:46:45;5.32;;;2.40;;
61899;SDS011;47853;55.890;37.664;2022-09-17T15:54:57;5.78;;;2.30;;
61899;SDS011;47853;55.890;37.664;2022-09-17T15:57:28;7.57;;;2.20;;
61899;SDS011;47853;55.890;37.664;2022-09-17T16:00:05;6.25;;;2.55;;
61899;SDS011;47853;55.890;37.664;2022-09-17T16:02:40;12.57;;;2.90;;
61899;SDS011;47853;55.890;37.664;2022-09-17T16:07:39;6.82;;;2.67;;
61899;SDS011;47853;55.890;37.664;2022-09-17T16:10:05;7.28;;;3.20;;
61899;SDS011;47853;55.890;37.664;2022-09-17T16:12:32;6.18;;;2.60;;
61899;SDS011;47853;55.890;37.664;2022-09-17T16:14:58;6.97;;;3.15;;
61899;SDS011;47853;55.890;37.664;2022-09-17T16:19:49;5.13;;;2.42;;
61899;SDS011;47853;55.890;37.664;2022-09-17T16:22:15;4.65;;;2.50;;
61899;SDS011;47853;55.890;37.664;2022-09-17T16:24:40;7.65;;;2.35;;
61899;SDS011;47853;55.890;37.664;2022-09-17T16:27:06;6.47;;;3.10;;
61899;SDS011;47853;55.890;37.664;2022-09-17T16:29:34;7.72;;;2.45;;
61899;SDS011;47853;55.890;37.664;2022-09-17T16:31:59;5.85;;;2.40;;
61899;SDS011;47853;55.890;37.664;2022-09-17T16:34:25;7.32;;;2.72;;
61899;SDS011;47853;55.890;37.664;2022-09-17T16:36:50;9.07;;;3.05;;
61899;SDS011;47853;55.890;37.664;2022-09-17T16:39:15;8.32;;;2.67;;
61899;SDS011;47853;55.890;37.664;2022-09-17T16:41:41;8.30;;;2.45;;
61899;SDS011;47853;55.890;37.664;2022-09-17T16:44:09;5.90;;;2.53;;
61899;SDS011;47853;55.890;37.664;2022-09-17T16:46:34;6.13;;;2.65;;
61899;SDS011;47853;55.890;37.664;2022-09-17T16:48:59;8.88;;;3.15;;
61899;SDS011;47853;55.890;37.664;2022-09-17T16:51:25;11.90;;;3.30;;
61899;SDS011;47853;55.890;37.664;2022-09-17T16:53:50;4.43;;;2.60;;
61899;SDS011;47853;55.890;37.664;2022-09-17T16:56:15;7.00;;;2.75;;
61899;SDS011;47853;55.890;37.664;2022-09-17T16:58:41;5.38;;;2.50;;
61899;SDS011;47853;55.890;37.664;2022-09-17T17:01:10;7.13;;;2.97;;
61899;SDS011;47853;55.890;37.664;2022-09-17T17:03:37;9.38;;;3.10;;
61899;SDS011;47853;55.890;37.664;2022-09-17T17:06:02;4.70;;;3.10;;
61899;SDS011;47853;55.890;37.664;2022-09-17T17:08:29;5.50;;;3.42;;
61899;SDS011;47853;55.890;37.664;2022-09-17T17:10:55;7.55;;;3.42;;
61899;SDS011;47853;55.890;37.664;2022-09-17T17:13:21;7.25;;;4.38;;
61899;SDS011;47853;55.890;37.664;2022-09-17T17:15:47;11.23;;;3.47;;
61899;SDS011;47853;55.890;37.664;2022-09-17T17:18:18;6.32;;;3.58;;
61899;SDS011;47853;55.890;37.664;2022-09-17T17:20:44;6.22;;;3.00;;
61899;SDS011;47853;55.890;37.664;2022-09-17T17:23:12;11.27;;;3.58;;
61899;SDS011;47853;55.890;37.664;2022-09-17T17:25:49;6.53;;;3.50;;
61899;SDS011;47853;55.890;37.664;2022-09-17T17:28:15;20.90;;;13.68;;
61899;SDS011;47853;55.890;37.664;2022-09-17T17:30:45;32.33;;;25.05;;
61899;SDS011;47853;55.890;37.664;2022-09-17T17:33:11;12.20;;;3.60;;
61899;SDS011;47853;55.890;37.664;2022-09-17T17:35:39;7.35;;;3.17;;
61899;SDS011;47853;55.890;37.664;2022-09-17T17:38:11;4.32;;;3.03;;
61899;SDS011;47853;55.890;37.664;2022-09-17T17:40:36;10.20;;;3.72;;
61899;SDS011;47853;55.890;37.664;2022-09-17T17:43:01;5.70;;;3.53;;
61899;SDS011;47853;55.890;37.664;2022-09-17T17:45:27;8.05;;;3.55;;
61899;SDS011;47853;55.890;37.664;2022-09-17T17:47:52;9.82;;;4.47;;
61899;SDS011;47853;55.890;37.664;2022-09-17T17:50:17;7.30;;;3.20;;
61899;SDS011;47853;55.890;37.664;2022-09-17T17:52:43;6.45;;;3.20;;
61899;SDS011;47853;55.890;37.664;2022-09-17T17:55:08;7.85;;;3.30;;
61899;SDS011;47853;55.890;37.664;2022-09-17T17:57:33;11.35;;;2.88;;
61899;SDS011;47853;55.890;37.664;2022-09-17T17:59:59;6.20;;;2.78;;
61899;SDS011;47853;55.890;37.664;2022-09-17T18:02:24;9.80;;;3.30;;
61899;SDS011;47853;55.890;37.664;2022-09-17T18:04:49;9.93;;;3.17;;
61899;SDS011;47853;55.890;37.664;2022-09-17T18:07:15;7.25;;;2.83;;
61899;SDS011;47853;55.890;37.664;2022-09-17T18:09:40;4.70;;;2.50;;
61899;SDS011;47853;55.890;37.664;2022-09-17T18:12:05;4.45;;;2.42;;
61899;SDS011;47853;55.890;37.664;2022-09-17T18:14:31;5.88;;;2.70;;
61899;SDS011;47853;55.890;37.664;2022-09-17T18:16:56;4.45;;;2.92;;
61899;SDS011;47853;55.890;37.664;2022-09-17T18:19:21;5.45;;;2.70;;
61899;SDS011;47853;55.890;37.664;2022-09-17T18:21:47;6.75;;;3.20;;
61899;SDS011;47853;55.890;37.664;2022-09-17T18:24:12;7.60;;;2.67;;
61899;SDS011;47853;55.890;37.664;2022-09-17T18:26:37;7.13;;;2.90;;
61899;SDS011;47853;55.890;37.664;2022-09-17T18:29:03;6.07;;;2.97;;
61899;SDS011;47853;55.890;37.664;2022-09-17T18:31:29;5.22;;;3.10;;
61899;SDS011;47853;55.890;37.664;2022-09-17T18:33:56;5.50;;;2.78;;
61899;SDS011;47853;55.890;37.664;2022-09-17T18:36:26;5.55;;;3.22;;
61899;SDS011;47853;55.890;37.664;2022-09-17T18:38:54;4.10;;;2.45;;